Time;durP1;ratioP1;P1;durP2;ratioP2;P2;SDS_P1;SDS_P2;PMS_P1;PMS_P2;Temp;Humidity;BMP_temperature;BMP_pressure;BME280_temperature;BME280_humidity;BME280_pressure;Samples;Min_cycle;Max_cycle;Signal;HPM_P1;HPM_P2
2021/03/30 00:01:20;;;;;;;10.35;4.22;;;8.90;1.00;;;;;;4994736;28;20036;-75
2021/03/30 00:03:46;;;;;;;8.38;4.20;;;8.90;99.90;;;;;;4996811;28;20030;-74
2021/03/30 00:06:12;;;;;;;5.47;3.38;;;9.00;1.00;;;;;;4996409;28;20025;-75
2021/03/30 00:08:38;;;;;;;5.00;3.20;;;8.90;1.00;;;;;;4989029;28;20033;-74
2021/03/30 00:11:04;;;;;;;8.68;3.25;;;8.80;1.00;;;;;;4996027;28;20014;-74
2021/03/30 00:13:30;;;;;;;4.68;3.35;;;8.70;99.90;;;;;;4996602;28;20045;-75
2021/03/30 00:15:55;;;;;;;7.20;3.25;;;8.70;99.90;;;;;;4986206;28;20026;-75
2021/03/30 00:18:21;;;;;;;5.00;3.55;;;8.70;99.90;;;;;;4992991;28;20030;-73
2021/03/30 00:20:47;;;;;;;8.55;3.75;;;8.60;1.00;;;;;;4991254;28;20108;-74
2021/03/30 00:23:13;;;;;;;5.47;3.55;;;8.60;1.00;;;;;;4995651;28;20106;-75
2021/03/30 00:25:38;;;;;;;7.82;3.15;;;8.60;21.10;;;;;;4995711;28;20034;-74
2021/03/30 00:28:04;;;;;;;8.88;4.28;;;8.60;99.90;;;;;;4995197;28;20026;-73
2021/03/30 00:30:31;;;;;;;5.57;3.83;;;8.50;99.90;;;;;;5004922;28;20018;-75
2021/03/30 00:32:57;;;;;;;5.72;4.38;;;8.50;99.90;;;;;;5005385;28;20034;-74
2021/03/30 00:35:22;;;;;;;6.13;4.07;;;8.60;1.00;;;;;;4992153;28;20038;-75
2021/03/30 00:37:49;;;;;;;8.32;4.28;;;8.70;1.00;;;;;;4988988;28;20019;-75
2021/03/30 00:40:14;;;;;;;9.65;3.83;;;8.70;1.00;;;;;;4995509;28;20030;-75
2021/03/30 00:42:40;;;;;;;5.88;4.18;;;8.60;99.90;;;;;;4991694;28;20031;-76
2021/03/30 00:45:08;;;;;;;13.88;4.82;;;8.60;99.90;;;;;;4992902;28;20386;-76
2021/03/30 00:47:35;;;;;;;8.25;4.57;;;8.60;1.00;;;;;;4994840;28;20034;-76
2021/03/30 00:50:02;;;;;;;6.60;4.53;;;8.50;14.40;;;;;;4994948;28;20034;-75
2021/03/30 00:52:28;;;;;;;18.70;5.03;;;8.40;99.90;;;;;;4986879;28;20033;-75
2021/03/30 00:54:54;;;;;;;14.25;5.35;;;8.40;99.90;;;;;;5003487;28;20030;-75
2021/03/30 00:57:20;;;;;;;9.40;4.65;;;8.30;1.00;;;;;;4996177;28;20026;-74
2021/03/30 00:59:46;;;;;;;8.98;4.57;;;8.20;99.90;;;;;;4988928;28;20019;-74
2021/03/30 01:02:13;;;;;;;10.23;5.47;;;8.20;99.90;;;;;;4974922;28;20119;-74
2021/03/30 01:04:39;;;;;;;13.13;5.30;;;8.20;99.90;;;;;;4988752;28;20441;-74
2021/03/30 01:07:06;;;;;;;10.23;5.68;;;8.20;99.90;;;;;;4993962;28;20037;-74
2021/03/30 01:09:41;;;;;;;14.50;5.93;;;8.20;1.00;;;;;;4986851;28;20052;-75
2021/03/30 01:12:25;;;;;;;12.85;6.00;;;8.10;1.00;;;;;;4992725;28;20450;-75
2021/03/30 01:14:58;;;;;;;8.98;5.55;;;8.10;1.00;;;;;;4994671;28;20064;-75
2021/03/30 01:18:04;;;;;;;8.75;4.70;;;8.10;1.00;;;;;;4993934;28;20050;-75
2021/03/30 01:21:01;;;;;;;10.80;5.57;;;8.10;1.00;;;;;;4989996;28;20042;-75
2021/03/30 01:23:56;;;;;;;11.02;5.93;;;8.10;1.00;;;;;;4992036;28;20026;-74
2021/03/30 01:26:25;;;;;;;9.90;5.47;;;8.00;1.00;;;;;;4993681;28;20033;-75
2021/03/30 01:29:24;;;;;;;8.80;5.72;;;8.00;1.00;;;;;;4994399;28;20109;-75
2021/03/30 01:31:58;;;;;;;11.38;5.85;;;8.00;1.00;;;;;;4989798;28;20090;-75
2021/03/30 01:34:25;;;;;;;8.48;4.82;;;7.90;1.00;;;;;;4999230;28;20033;-75
2021/03/30 01:36:53;;;;;;;10.15;6.50;;;7.80;1.00;;;;;;4989774;28;20602;-75
2021/03/30 01:39:22;;;;;;;9.32;5.05;;;7.80;1.00;;;;;;4991005;28;20026;-75
2021/03/30 01:41:49;;;;;;;9.85;6.35;;;7.80;1.00;;;;;;4986361;28;20437;-75
2021/03/30 01:44:19;;;;;;;9.13;5.53;;;7.80;1.00;;;;;;4993486;28;20684;-75
2021/03/30 01:46:47;;;;;;;7.43;4.72;;;7.90;1.00;;;;;;4989304;28;20035;-74
2021/03/30 01:49:14;;;;;;;7.57;5.15;;;7.90;1.00;;;;;;4992458;28;20565;-75
2021/03/30 01:51:41;;;;;;;12.00;5.47;;;7.90;1.00;;;;;;4986110;28;20101;-75
2021/03/30 01:54:08;;;;;;;12.13;5.38;;;7.80;1.00;;;;;;4995388;28;20113;-74
2021/03/30 01:56:35;;;;;;;10.48;5.70;;;7.70;1.00;;;;;;4997380;28;20030;-75
2021/03/30 01:59:03;;;;;;;11.43;5.45;;;7.60;1.00;;;;;;4989456;28;20557;-75
2021/03/30 02:01:30;;;;;;;11.77;5.93;;;7.50;25.50;;;;;;4994230;28;20030;-75
2021/03/30 02:03:58;;;;;;;18.42;6.72;;;7.50;30.90;;;;;;4988509;28;20496;-74
2021/03/30 02:06:24;;;;;;;8.50;5.63;;;7.50;37.40;;;;;;4994873;28;20037;-75
2021/03/30 02:08:51;;;;;;;11.13;5.40;;;7.40;35.40;;;;;;4992961;28;20030;-75
2021/03/30 02:11:27;;;;;;;17.83;5.82;;;7.40;65.80;;;;;;4994501;28;20053;-76
2021/03/30 02:13:56;;;;;;;7.68;5.28;;;7.50;60.00;;;;;;5009041;28;20556;-75
2021/03/30 02:16:30;;;;;;;9.50;5.35;;;7.60;57.00;;;;;;4992370;28;20054;-74
2021/03/30 02:19:06;;;;;;;11.30;5.35;;;7.60;68.70;;;;;;4994165;28;20465;-75
2021/03/30 02:21:42;;;;;;;8.18;5.75;;;7.50;69.90;;;;;;4992969;28;20022;-75
2021/03/30 02:24:10;;;;;;;9.85;6.18;;;7.40;88.10;;;;;;4993627;28;20505;-75
2021/03/30 02:26:39;;;;;;;7.55;5.72;;;7.40;99.90;;;;;;4991156;28;20034;-75
2021/03/30 02:29:13;;;;;;;10.00;5.35;;;7.30;99.90;;;;;;4996524;28;20046;-74
2021/03/30 02:31:41;;;;;;;10.43;6.15;;;7.20;99.90;;;;;;4996040;28;20109;-74
2021/03/30 02:34:08;;;;;;;9.77;6.15;;;7.10;99.90;;;;;;4984146;28;20577;-75
2021/03/30 02:36:35;;;;;;;13.68;6.40;;;7.10;99.90;;;;;;4993292;28;20030;-75
2021/03/30 02:39:06;;;;;;;11.45;5.63;;;7.00;99.90;;;;;;4993220;28;20439;-75
2021/03/30 02:41:35;;;;;;;8.82;5.72;;;7.10;99.90;;;;;;4993288;28;20026;-76
2021/03/30 02:44:01;;;;;;;8.35;5.57;;;7.10;99.90;;;;;;4992951;28;20058;-75
2021/03/30 02:46:28;;;;;;;7.30;5.53;;;7.20;99.90;;;;;;4991436;28;20358;-74
2021/03/30 02:48:55;;;;;;;10.63;5.50;;;7.20;99.90;;;;;;4984253;28;20052;-75
2021/03/30 02:51:24;;;;;;;10.07;6.40;;;7.30;99.90;;;;;;4991335;28;20033;-75
2021/03/30 02:53:54;;;;;;;11.38;5.93;;;7.20;99.90;;;;;;5016100;23;20026;-76
2021/03/30 02:56:21;;;;;;;8.15;5.90;;;7.10;99.90;;;;;;5005103;28;20026;-77
2021/03/30 02:58:47;;;;;;;9.60;5.97;;;7.10;99.90;;;;;;4998953;28;20053;-77
2021/03/30 03:01:15;;;;;;;10.25;5.97;;;7.00;99.90;;;;;;4999348;28;20520;-77
2021/03/30 03:03:42;;;;;;;9.45;6.07;;;7.00;99.90;;;;;;4998060;28;20022;-75
2021/03/30 03:06:10;;;;;;;10.23;5.97;;;7.10;99.90;;;;;;4999608;28;20022;-75
2021/03/30 03:08:36;;;;;;;11.18;6.10;;;7.00;99.90;;;;;;4994801;28;20042;-76
2021/03/30 03:11:03;;;;;;;8.13;5.70;;;7.00;99.90;;;;;;5003390;28;20027;-76
2021/03/30 03:13:30;;;;;;;12.63;6.07;;;7.00;99.90;;;;;;5004713;28;20109;-77
2021/03/30 03:15:56;;;;;;;8.82;5.25;;;7.00;99.90;;;;;;5002195;28;22490;-77
2021/03/30 03:18:23;;;;;;;7.63;5.80;;;6.90;99.90;;;;;;5003110;28;20058;-76
2021/03/30 03:20:49;;;;;;;13.57;6.95;;;6.90;99.90;;;;;;5003103;28;20026;-76
2021/03/30 03:23:15;;;;;;;9.48;6.10;;;7.00;99.90;;;;;;5003495;28;20033;-75
2021/03/30 03:25:44;;;;;;;10.57;5.70;;;6.90;99.90;;;;;;5013907;28;20030;-77
2021/03/30 03:28:10;;;;;;;11.02;6.05;;;6.80;99.90;;;;;;5015204;28;20030;-75
2021/03/30 03:30:38;;;;;;;8.40;5.47;;;6.80;99.90;;;;;;5015718;28;20035;-77
2021/03/30 03:33:08;;;;;;;13.50;6.80;;;6.70;99.90;;;;;;5013020;28;20026;-76
2021/03/30 03:35:34;;;;;;;9.32;6.40;;;6.70;99.90;;;;;;5005384;28;20026;-76
2021/03/30 03:38:02;;;;;;;13.88;6.15;;;6.70;99.90;;;;;;4999915;28;20101;-76
2021/03/30 03:40:28;;;;;;;10.27;5.60;;;6.70;99.90;;;;;;4997687;28;20036;-76
2021/03/30 03:42:55;;;;;;;15.98;5.90;;;6.70;99.90;;;;;;5001028;28;20171;-76
2021/03/30 03:45:21;;;;;;;7.32;5.30;;;6.70;99.90;;;;;;5008799;28;20010;-76
2021/03/30 03:47:47;;;;;;;7.20;5.43;;;6.80;99.90;;;;;;5012136;28;20558;-76
2021/03/30 03:50:13;;;;;;;8.13;5.50;;;6.80;99.90;;;;;;5017328;28;20019;-76
2021/03/30 03:52:45;;;;;;;6.75;5.28;;;6.70;99.90;;;;;;5016834;28;20053;-76
2021/03/30 03:55:14;;;;;;;9.30;5.93;;;6.70;99.90;;;;;;5011339;28;20038;-76
2021/03/30 03:57:52;;;;;;;9.30;5.55;;;6.70;99.90;;;;;;5012477;28;20082;-76
2021/03/30 04:00:22;;;;;;;12.50;6.22;;;6.60;99.90;;;;;;5020179;28;20037;-77
2021/03/30 04:03:06;;;;;;;9.83;5.87;;;6.60;99.90;;;;;;5006014;28;20030;-77
2021/03/30 04:06:03;;;;;;;9.35;6.15;;;6.50;99.90;;;;;;5015775;28;20105;-76
2021/03/30 04:08:32;;;;;;;10.48;6.43;;;6.60;99.90;;;;;;5015783;28;20183;-77
2021/03/30 04:11:01;;;;;;;14.57;5.15;;;6.50;99.90;;;;;;5018943;28;20030;-76
2021/03/30 04:13:30;;;;;;;12.50;5.70;;;6.40;99.90;;;;;;5019395;28;20089;-76
2021/03/30 04:16:01;;;;;;;10.40;5.47;;;6.40;99.90;;;;;;5019975;28;20069;-76
2021/03/30 04:18:26;;;;;;;6.17;5.50;;;6.40;99.90;;;;;;5019802;28;20037;-76
2021/03/30 04:20:54;;;;;;;9.75;6.90;;;6.30;99.90;;;;;;5019777;28;20030;-76
2021/03/30 04:23:23;;;;;;;13.40;6.32;;;6.20;99.90;;;;;;5018880;28;20033;-76
2021/03/30 04:25:49;;;;;;;15.50;6.28;;;6.20;99.90;;;;;;5018842;28;20018;-76
2021/03/30 04:28:15;;;;;;;10.32;5.88;;;6.20;99.90;;;;;;5019409;28;20026;-77
2021/03/30 04:30:40;;;;;;;11.15;5.65;;;6.20;99.90;;;;;;5020115;28;20021;-76
2021/03/30 04:33:06;;;;;;;9.85;6.13;;;6.20;99.90;;;;;;5019518;28;20030;-76
2021/03/30 04:35:31;;;;;;;10.68;5.95;;;6.20;99.90;;;;;;5019477;28;20045;-75
2021/03/30 04:37:57;;;;;;;13.85;5.28;;;6.30;99.90;;;;;;5018306;28;20097;-75
2021/03/30 04:40:23;;;;;;;10.32;5.65;;;6.30;99.90;;;;;;5012520;28;20564;-75
2021/03/30 04:42:49;;;;;;;16.40;5.55;;;6.20;99.90;;;;;;5010703;28;20215;-75
2021/03/30 04:45:16;;;;;;;8.52;5.40;;;6.20;99.90;;;;;;5018022;28;20041;-75
2021/03/30 04:47:41;;;;;;;10.63;5.85;;;6.30;99.90;;;;;;5018374;28;20030;-76
2021/03/30 04:50:08;;;;;;;17.40;6.97;;;6.20;99.90;;;;;;5017555;28;20033;-77
2021/03/30 04:52:35;;;;;;;13.43;5.72;;;6.20;99.90;;;;;;5006618;28;20026;-76
2021/03/30 04:55:02;;;;;;;22.02;7.03;;;6.20;99.90;;;;;;5004748;28;20038;-76
2021/03/30 04:57:28;;;;;;;15.48;5.97;;;6.10;99.90;;;;;;5006097;28;20029;-75
2021/03/30 04:59:54;;;;;;;15.68;6.50;;;6.10;99.90;;;;;;5016058;28;20034;-76
2021/03/30 05:02:19;;;;;;;10.63;6.32;;;6.10;99.90;;;;;;5017476;28;20098;-76
2021/03/30 05:04:45;;;;;;;13.05;5.95;;;6.10;99.90;;;;;;5017621;28;20077;-76
2021/03/30 05:07:11;;;;;;;8.70;5.70;;;6.10;99.90;;;;;;4999470;28;20038;-75
2021/03/30 05:09:36;;;;;;;10.65;6.07;;;6.10;99.90;;;;;;5005956;28;20061;-77
2021/03/30 05:12:03;;;;;;;11.23;6.18;;;6.10;99.90;;;;;;5002230;28;20054;-77
2021/03/30 05:14:28;;;;;;;10.50;5.03;;;6.10;99.90;;;;;;5000807;28;20048;-75
2021/03/30 05:16:54;;;;;;;13.02;6.78;;;6.30;99.90;;;;;;5000327;28;20105;-75
2021/03/30 05:19:19;;;;;;;18.30;5.68;;;6.40;99.90;;;;;;4998084;28;20023;-75
2021/03/30 05:21:45;;;;;;;13.23;6.20;;;6.60;99.90;;;;;;4998802;28;20057;-76
2021/03/30 05:24:10;;;;;;;10.32;5.88;;;6.80;99.90;;;;;;4999198;28;20058;-75
2021/03/30 05:26:36;;;;;;;17.23;5.65;;;7.00;92.80;;;;;;5000456;28;20363;-76
2021/03/30 05:29:02;;;;;;;10.48;5.78;;;7.30;38.30;;;;;;4999191;28;20073;-76
2021/03/30 05:31:28;;;;;;;15.68;5.95;;;7.50;9.00;;;;;;5004364;28;20033;-77
2021/03/30 05:33:54;;;;;;;12.30;5.70;;;7.80;1.00;;;;;;4998638;28;20034;-77
2021/03/30 05:36:19;;;;;;;15.73;7.53;;;7.90;1.00;;;;;;4999633;28;20062;-77
2021/03/30 05:38:45;;;;;;;12.88;6.15;;;8.30;1.00;;;;;;4998933;28;20022;-77
2021/03/30 05:41:10;;;;;;;12.07;7.00;;;8.40;99.90;;;;;;4998918;28;20053;-76
2021/03/30 05:43:36;;;;;;;16.50;5.68;;;8.50;99.90;;;;;;4999336;28;20033;-76
2021/03/30 05:46:03;;;;;;;19.75;6.78;;;8.80;90.10;;;;;;5000667;28;20084;-76
2021/03/30 05:48:31;;;;;;;23.73;6.55;;;8.80;99.90;;;;;;5001988;28;20598;-77
2021/03/30 05:50:57;;;;;;;20.50;6.93;;;8.90;99.90;;;;;;5002161;28;20093;-75
2021/03/30 05:53:25;;;;;;;17.33;6.63;;;8.90;67.10;;;;;;5001718;28;20114;-76
2021/03/30 05:55:56;;;;;;;7.88;4.60;;;8.80;99.90;;;;;;5009304;28;20034;-75
2021/03/30 05:58:24;;;;;;;8.45;5.07;;;8.80;1.00;;;;;;5001551;28;20026;-76
2021/03/30 06:00:52;;;;;;;15.20;6.13;;;8.70;27.40;;;;;;5000334;28;20065;-75
2021/03/30 06:03:27;;;;;;;9.15;4.35;;;8.40;99.90;;;;;;4998316;28;20023;-76
2021/03/30 06:05:54;;;;;;;10.82;5.50;;;8.30;99.90;;;;;;4997391;28;20409;-76
2021/03/30 06:08:21;;;;;;;13.85;4.32;;;8.40;99.90;;;;;;4998793;28;20038;-76
2021/03/30 06:10:47;;;;;;;7.63;4.72;;;8.40;99.90;;;;;;4999000;28;20490;-76
2021/03/30 06:13:13;;;;;;;9.65;6.68;;;8.40;99.90;;;;;;4997993;28;20521;-76
2021/03/30 06:15:39;;;;;;;7.55;4.75;;;8.30;99.90;;;;;;4999470;28;20023;-76
2021/03/30 06:18:19;;;;;;;14.60;5.05;;;8.40;99.90;;;;;;4998944;28;20407;-76
2021/03/30 06:20:45;;;;;;;10.13;5.40;;;8.60;99.90;;;;;;4996970;28;20033;-76
2021/03/30 06:23:11;;;;;;;13.95;5.60;;;8.60;99.90;;;;;;4997385;28;20027;-76
2021/03/30 06:25:50;;;;;;;11.50;5.55;;;8.60;99.90;;;;;;4995927;28;20030;-76
2021/03/30 06:28:27;;;;;;;10.07;5.07;;;8.70;99.90;;;;;;4995883;28;20026;-76
2021/03/30 06:30:54;;;;;;;12.10;5.80;;;8.70;99.90;;;;;;4999533;28;20057;-77
2021/03/30 06:33:20;;;;;;;12.98;5.57;;;9.00;1.00;;;;;;4999746;28;20034;-76
2021/03/30 06:35:46;;;;;;;18.63;5.57;;;9.20;99.90;;;;;;5000419;28;20045;-76
2021/03/30 06:38:12;;;;;;;13.27;5.35;;;9.30;99.90;;;;;;5001394;28;20026;-77
2021/03/30 06:40:39;;;;;;;10.02;4.90;;;9.20;1.00;;;;;;5014109;28;20034;-76
2021/03/30 06:46:09;;;;;;;5.18;4.30;;;9.30;58.60;;;;;;5009221;28;20086;-77
2021/03/30 06:48:34;;;;;;;10.80;5.05;;;9.40;1.00;;;;;;5001730;28;20026;-77
2021/03/30 06:51:19;;;;;;;15.18;6.18;;;9.80;1.00;;;;;;5007552;28;20066;-77
2021/03/30 06:53:45;;;;;;;11.18;5.45;;;9.90;1.00;;;;;;5015148;28;20070;-77
2021/03/30 06:56:11;;;;;;;13.93;5.82;;;9.90;1.00;;;;;;5000960;28;20042;-77
2021/03/30 06:58:57;;;;;;;17.13;4.75;;;10.00;99.90;;;;;;4996337;28;20018;-77
2021/03/30 07:01:25;;;;;;;15.32;5.88;;;10.20;99.90;;;;;;4996965;28;20022;-76
2021/03/30 07:03:53;;;;;;;11.18;5.45;;;10.20;1.00;;;;;;4996731;28;20077;-76
2021/03/30 07:06:19;;;;;;;6.35;5.22;;;10.20;99.90;;;;;;4993812;28;20034;-76
2021/03/30 07:08:45;;;;;;;11.18;6.18;;;10.30;99.90;;;;;;4994210;28;20022;-77
2021/03/30 07:11:11;;;;;;;14.30;5.78;;;10.40;99.90;;;;;;4998892;28;20366;-76
2021/03/30 07:13:37;;;;;;;10.43;5.80;;;10.40;99.90;;;;;;4994797;28;20022;-76
2021/03/30 07:16:20;;;;;;;10.43;5.38;;;10.50;1.00;;;;;;5011660;28;20035;-77
2021/03/30 07:18:49;;;;;;;19.25;5.93;;;10.60;99.90;;;;;;4990198;28;20068;-76
2021/03/30 07:21:23;;;;;;;12.25;6.03;;;10.60;96.70;;;;;;4999844;28;20025;-76
2021/03/30 07:24:03;;;;;;;16.33;5.55;;;10.50;69.20;;;;;;5005228;28;20050;-77
2021/03/30 07:26:35;;;;;;;10.10;5.97;;;10.80;99.90;;;;;;5018110;28;20078;-76
2021/03/30 07:29:14;;;;;;;11.43;6.75;;;10.80;99.90;;;;;;5018774;28;20034;-77
2021/03/30 07:31:43;;;;;;;11.30;6.05;;;10.90;99.90;;;;;;5014441;28;20145;-76
2021/03/30 07:34:23;;;;;;;12.25;6.07;;;10.90;99.90;;;;;;5020763;28;20045;-76
2021/03/30 07:36:52;;;;;;;11.40;5.22;;;11.00;25.30;;;;;;5021320;28;20050;-75
2021/03/30 07:39:21;;;;;;;8.82;5.47;;;11.20;99.90;;;;;;5003951;28;20007;-77
2021/03/30 07:41:48;;;;;;;11.55;6.00;;;11.40;99.90;;;;;;5021410;28;20022;-75
2021/03/30 07:44:15;;;;;;;6.95;5.20;;;11.30;1.00;;;;;;5020234;28;20033;-76
2021/03/30 07:46:41;;;;;;;15.43;6.13;;;11.50;7.70;;;;;;5020217;28;20014;-77
2021/03/30 07:49:09;;;;;;;12.50;5.55;;;11.60;1.00;;;;;;5020521;28;20018;-74
2021/03/30 07:51:45;;;;;;;8.52;5.78;;;11.80;99.90;;;;;;5018319;28;20025;-75
2021/03/30 07:54:16;;;;;;;6.40;5.65;;;11.90;99.90;;;;;;5019849;28;20102;-75
2021/03/30 07:56:45;;;;;;;7.80;5.70;;;12.10;99.90;;;;;;5019713;28;20030;-76
2021/03/30 07:59:42;;;;;;;13.68;5.95;;;12.10;79.50;;;;;;5020178;28;20014;-78
2021/03/30 08:02:11;;;;;;;14.27;6.00;;;12.10;99.90;;;;;;5017524;28;20022;-76
2021/03/30 08:04:37;;;;;;;11.60;5.47;;;12.40;47.60;;;;;;5015082;28;20006;-77
2021/03/30 08:07:03;;;;;;;8.40;5.97;;;12.50;1.00;;;;;;5015856;28;20030;-76
2021/03/30 08:09:29;;;;;;;7.95;5.07;;;12.40;99.90;;;;;;5003902;28;20022;-77
2021/03/30 08:11:56;;;;;;;12.18;5.90;;;12.60;99.90;;;;;;5002893;28;20026;-77
2021/03/30 08:14:36;;;;;;;9.30;5.43;;;12.70;99.90;;;;;;4998461;28;20042;-77
2021/03/30 08:17:04;;;;;;;12.10;6.65;;;12.80;99.90;;;;;;5014944;28;20018;-77
2021/03/30 08:19:30;;;;;;;13.43;5.82;;;12.90;99.90;;;;;;5015448;28;20546;-78
2021/03/30 08:22:00;;;;;;;7.88;5.50;;;13.00;99.90;;;;;;5005207;28;20029;-78
2021/03/30 08:24:48;;;;;;;8.23;5.43;;;13.10;99.90;;;;;;5007853;28;20026;-77
2021/03/30 08:27:36;;;;;;;9.77;6.00;;;13.20;99.90;;;;;;5014670;28;20289;-76
2021/03/30 08:30:01;;;;;;;14.50;6.28;;;13.40;11.70;;;;;;5004380;28;20523;-77
2021/03/30 08:32:29;;;;;;;7.50;5.63;;;13.30;82.40;;;;;;5015776;28;20022;-80
2021/03/30 08:34:55;;;;;;;12.23;6.00;;;13.60;1.00;;;;;;5002558;28;20105;-78
2021/03/30 08:37:22;;;;;;;11.40;5.57;;;13.70;1.00;;;;;;5005317;28;20029;-76
2021/03/30 08:39:49;;;;;;;10.27;6.45;;;13.90;1.00;;;;;;5014249;28;20033;-76
2021/03/30 08:42:17;;;;;;;12.65;6.53;;;14.10;1.00;;;;;;5004905;28;20038;-76
2021/03/30 08:44:59;;;;;;;12.00;5.63;;;14.20;99.90;;;;;;5007277;28;20030;-77
2021/03/30 08:47:26;;;;;;;16.38;6.40;;;14.30;99.90;;;;;;5004521;28;20046;-76
2021/03/30 08:50:24;;;;;;;20.92;6.82;;;14.40;99.90;;;;;;5002311;28;20027;-76
2021/03/30 08:52:54;;;;;;;9.35;5.85;;;14.50;99.90;;;;;;5006014;28;20053;-77
2021/03/30 08:55:31;;;;;;;9.48;5.97;;;14.60;99.90;;;;;;5040425;23;20052;-76
2021/03/30 08:58:00;;;;;;;10.68;6.03;;;14.80;99.90;;;;;;5035592;28;20033;-76
2021/03/30 09:00:26;;;;;;;11.77;5.85;;;14.90;99.90;;;;;;5035537;28;20026;-75
2021/03/30 09:02:59;;;;;;;9.63;5.43;;;15.10;99.90;;;;;;5050723;28;20029;-76
2021/03/30 09:05:25;;;;;;;14.68;7.47;;;15.30;39.80;;;;;;5028731;28;20469;-76
2021/03/30 09:07:50;;;;;;;7.80;5.20;;;15.40;23.70;;;;;;5034779;28;20032;-76
2021/03/30 09:10:16;;;;;;;10.55;6.35;;;15.40;12.60;;;;;;5035341;28;20032;-77
2021/03/30 09:12:44;;;;;;;13.35;5.60;;;15.50;1.00;;;;;;5038609;28;20017;-75
2021/03/30 09:15:12;;;;;;;14.77;5.72;;;15.70;1.00;;;;;;5039764;28;20064;-76
2021/03/30 09:17:58;;;;;;;12.68;5.60;;;15.80;1.00;;;;;;5029927;28;20032;-76
2021/03/30 09:20:34;;;;;;;12.70;5.65;;;16.00;1.00;;;;;;5036749;28;20556;-76
2021/03/30 09:23:11;;;;;;;11.68;4.93;;;15.90;1.00;;;;;;5035415;28;20036;-76
2021/03/30 09:25:42;;;;;;;9.52;4.57;;;16.20;1.00;;;;;;5041840;28;20028;-77
2021/03/30 09:28:18;;;;;;;;;;;16.40;1.00;;;;;;5034013;28;20034;-78
2021/03/30 09:30:44;;;;;;;8.98;4.30;;;16.50;99.90;;;;;;5029519;28;20281;-76
2021/03/30 09:33:11;;;;;;;9.07;4.45;;;16.60;99.90;;;;;;5033213;28;20026;-76
2021/03/30 09:35:37;;;;;;;12.75;5.30;;;16.70;99.90;;;;;;5034686;28;20177;-77
2021/03/30 09:38:04;;;;;;;8.88;4.47;;;16.80;99.90;;;;;;5034037;28;20030;-75
2021/03/30 09:40:41;;;;;;;8.07;5.07;;;16.80;99.90;;;;;;5034549;28;20029;-76
2021/03/30 09:43:17;;;;;;;11.75;4.68;;;16.90;99.90;;;;;;5035298;28;20105;-78
2021/03/30 09:45:44;;;;;;;9.63;4.90;;;17.00;99.90;;;;;;5044194;28;20037;-76
2021/03/30 09:48:12;;;;;;;8.77;5.03;;;17.30;99.90;;;;;;5024925;28;20036;-76
2021/03/30 09:50:50;;;;;;;7.68;5.47;;;17.30;99.90;;;;;;5033118;28;20041;-77
2021/03/30 09:53:15;;;;;;;7.68;5.47;;;17.50;99.90;;;;;;5034823;28;20025;-76
2021/03/30 09:55:43;;;;;;;7.85;5.65;;;17.70;99.90;;;;;;5034661;28;20021;-76
2021/03/30 09:58:16;;;;;;;10.50;5.95;;;17.90;99.90;;;;;;5032895;28;20022;-76
2021/03/30 10:00:47;;;;;;;6.70;4.97;;;17.70;99.90;;;;;;5026038;28;20036;-76
2021/03/30 10:03:13;;;;;;;;;;;17.90;99.90;;;;;;5036102;28;20022;-75
2021/03/30 10:05:41;;;;;;;8.60;4.88;;;18.10;99.90;;;;;;5035864;28;19916;-75
2021/03/30 10:08:21;;;;;;;11.18;5.30;;;18.10;99.90;;;;;;5029579;28;20140;-76
2021/03/30 10:10:49;;;;;;;9.02;5.20;;;18.30;99.90;;;;;;5024064;28;20051;-76
2021/03/30 10:13:36;;;;;;;18.05;7.13;;;18.40;99.90;;;;;;5047286;28;20032;-76
2021/03/30 10:16:06;;;;;;;8.18;4.85;;;18.40;99.90;;;;;;5028198;28;20025;-76
2021/03/30 10:18:33;;;;;;;5.63;4.82;;;18.60;99.90;;;;;;5036151;28;20481;-76
2021/03/30 10:21:06;;;;;;;10.98;5.32;;;18.80;99.90;;;;;;5038410;28;20030;-77
2021/03/30 10:23:35;;;;;;;8.20;4.57;;;18.90;99.90;;;;;;5036723;28;20037;-78
2021/03/30 10:26:22;;;;;;;8.52;5.45;;;18.80;99.90;;;;;;5036359;28;20027;-76
2021/03/30 10:29:09;;;;;;;8.52;4.85;;;19.20;99.90;;;;;;5028628;28;20108;-78
2021/03/30 10:31:51;;;;;;;8.95;5.05;;;19.30;99.90;;;;;;5032861;28;20029;-77
2021/03/30 10:34:24;;;;;;;;;;;19.60;99.90;;;;;;5020400;28;20067;-76
2021/03/30 10:36:51;;;;;;;8.45;5.20;;;19.60;97.20;;;;;;5029669;28;19976;-77
2021/03/30 10:39:26;;;;;;;8.38;5.15;;;19.70;92.00;;;;;;5029360;28;20217;-77
2021/03/30 10:42:00;;;;;;;8.77;4.20;;;19.70;79.60;;;;;;5035346;28;20555;-76
2021/03/30 10:44:33;;;;;;;9.55;4.43;;;20.00;69.90;;;;;;5049402;28;20060;-77
2021/03/30 10:47:10;;;;;;;10.23;4.53;;;20.00;60.80;;;;;;5033991;28;20117;-76
2021/03/30 10:49:36;;;;;;;8.00;4.10;;;20.20;49.90;;;;;;5033820;28;20025;-76
2021/03/30 10:52:02;;;;;;;4.68;2.85;;;20.10;38.80;;;;;;5033437;28;20022;-77
2021/03/30 10:54:27;;;;;;;7.70;2.88;;;20.40;1.00;;;;;;5033058;28;20033;-75
2021/03/30 10:56:53;;;;;;;5.30;3.00;;;20.50;1.00;;;;;;5025822;28;20029;-74
2021/03/30 10:59:19;;;;;;;4.95;3.00;;;20.50;1.00;;;;;;5033622;28;20384;-76
2021/03/30 11:01:44;;;;;;;3.30;2.70;;;20.70;1.00;;;;;;5036352;28;20041;-73
2021/03/30 11:04:10;;;;;;;4.75;2.83;;;20.90;1.00;;;;;;5030661;28;20024;-76
2021/03/30 11:06:35;;;;;;;5.53;2.85;;;21.10;1.00;;;;;;5028002;28;20029;-75
2021/03/30 11:09:05;;;;;;;6.55;3.60;;;20.90;1.00;;;;;;5035112;28;20036;-75
2021/03/30 11:11:31;;;;;;;6.43;3.80;;;21.10;1.00;;;;;;5032788;28;20396;-74
2021/03/30 11:13:57;;;;;;;4.43;2.80;;;21.40;1.00;;;;;;5036972;28;20029;-75
2021/03/30 11:16:22;;;;;;;3.25;2.70;;;21.40;1.00;;;;;;5038000;28;20133;-74
2021/03/30 11:18:48;;;;;;;3.42;2.80;;;21.50;1.00;;;;;;5037371;28;20018;-74
2021/03/30 11:21:14;;;;;;;6.40;2.92;;;21.50;1.00;;;;;;5037360;28;20375;-75
2021/03/30 11:23:41;;;;;;;6.63;3.03;;;21.70;1.00;;;;;;5052415;28;20028;-75
2021/03/30 11:26:07;;;;;;;5.32;2.85;;;21.80;1.00;;;;;;5033853;28;20173;-75
2021/03/30 11:28:37;;;;;;;4.75;3.22;;;21.90;1.00;;;;;;5024489;28;20109;-75
2021/03/30 11:31:07;;;;;;;5.40;3.65;;;22.00;1.00;;;;;;5027634;28;20029;-74
2021/03/30 11:33:41;;;;;;;5.72;3.00;;;22.00;1.00;;;;;;5038168;28;20040;-76
2021/03/30 11:36:14;;;;;;;4.55;2.92;;;22.10;1.00;;;;;;5033769;28;20093;-74
2021/03/30 11:38:40;;;;;;;6.63;3.53;;;22.20;1.00;;;;;;5051070;28;20032;-74
2021/03/30 11:41:05;;;;;;;7.03;3.70;;;22.20;1.00;;;;;;5042450;28;20026;-73
2021/03/30 11:43:31;;;;;;;6.70;3.60;;;22.40;1.00;;;;;;5040890;28;20100;-74
2021/03/30 11:45:57;;;;;;;9.45;3.05;;;22.50;1.00;;;;;;5037610;28;20035;-74
2021/03/30 11:48:22;;;;;;;4.68;3.63;;;22.50;1.00;;;;;;5036871;28;20036;-74
2021/03/30 11:50:49;;;;;;;8.25;3.25;;;22.60;1.00;;;;;;5043284;28;20049;-73
2021/03/30 11:53:15;;;;;;;4.35;3.85;;;22.60;1.00;;;;;;5040801;28;20033;-75
2021/03/30 11:55:40;;;;;;;8.95;3.67;;;22.60;1.00;;;;;;5040687;28;20097;-75
2021/03/30 11:58:06;;;;;;;6.13;3.95;;;22.60;1.00;;;;;;5041855;28;20505;-74
2021/03/30 12:00:32;;;;;;;4.57;3.80;;;22.50;1.00;;;;;;5041960;28;20022;-74
2021/03/30 12:02:57;;;;;;;6.72;3.30;;;22.50;1.00;;;;;;5039313;28;20041;-75
2021/03/30 12:05:23;;;;;;;10.95;3.38;;;22.60;1.00;;;;;;5026852;28;20030;-73
2021/03/30 12:07:48;;;;;;;4.47;3.00;;;22.80;1.00;;;;;;5035732;28;20036;-74
2021/03/30 12:10:14;;;;;;;8.15;3.53;;;22.90;1.00;;;;;;5035206;28;20053;-75
2021/03/30 12:12:41;;;;;;;6.32;3.40;;;22.80;1.00;;;;;;5033526;28;20137;-75
2021/03/30 12:15:10;;;;;;;3.72;2.58;;;22.70;1.00;;;;;;5028743;28;20029;-74
2021/03/30 12:17:36;;;;;;;3.97;2.90;;;22.70;1.00;;;;;;5028008;28;20028;-74
2021/03/30 12:20:01;;;;;;;5.82;3.10;;;22.80;1.00;;;;;;5039594;28;20029;-74
2021/03/30 12:22:27;;;;;;;4.15;2.65;;;22.90;1.00;;;;;;5035496;28;20082;-74
2021/03/30 12:24:53;;;;;;;3.55;3.15;;;23.00;1.00;;;;;;5035941;28;20033;-75
2021/03/30 12:27:19;;;;;;;3.08;2.45;;;23.20;1.00;;;;;;5035085;28;20029;-74
2021/03/30 12:29:44;;;;;;;3.65;2.72;;;23.20;1.00;;;;;;5035299;28;20389;-73
2021/03/30 12:32:11;;;;;;;8.10;3.13;;;23.20;1.00;;;;;;5038476;28;20033;-74
2021/03/30 12:34:40;;;;;;;8.05;2.67;;;23.00;1.00;;;;;;5039192;28;20025;-74
2021/03/30 12:37:07;;;;;;;8.45;3.47;;;23.20;1.00;;;;;;5040197;28;20026;-73
2021/03/30 12:39:32;;;;;;;4.85;3.33;;;23.40;1.00;;;;;;5041767;28;20072;-74
2021/03/30 12:41:58;;;;;;;4.65;2.80;;;23.30;1.00;;;;;;5039123;28;20034;-74
2021/03/30 12:44:25;;;;;;;8.57;3.72;;;23.20;1.00;;;;;;5047387;28;20044;-74
2021/03/30 12:46:51;;;;;;;9.60;3.45;;;23.30;1.00;;;;;;5049284;28;20025;-74
2021/03/30 12:49:19;;;;;;;4.93;3.20;;;23.30;1.00;;;;;;5049379;28;20048;-76
2021/03/30 12:51:44;;;;;;;5.72;3.30;;;23.30;1.00;;;;;;5040678;28;20021;-74
2021/03/30 12:54:10;;;;;;;5.38;3.47;;;23.20;1.00;;;;;;5037164;28;20124;-74
2021/03/30 12:56:36;;;;;;;4.45;2.95;;;23.00;1.00;;;;;;5039120;28;20049;-75
2021/03/30 12:59:01;;;;;;;5.55;2.90;;;22.80;1.00;;;;;;5037556;28;20025;-74
2021/03/30 13:01:28;;;;;;;5.25;3.03;;;23.00;1.00;;;;;;5039497;28;20030;-73
2021/03/30 13:03:53;;;;;;;6.70;3.45;;;23.20;1.00;;;;;;5040097;28;20022;-75
2021/03/30 13:06:19;;;;;;;6.07;3.35;;;23.50;1.00;;;;;;5039952;28;20040;-76